Pilar Observatorio, Argentina

2:45 AM ART on October 22, 2014 (GMT -0300)
Ferreyra | Change Station
CLOSE
Current Station
Personal Weather Station
Location: Cordoba, CORDOBA
Elevation: 1335 ft
Nearby Weather Stations

Elev 1335 ft 31.45 °S, 64.12 °W | Updated 4 minutes ago

Clear
Clear
69.4 °F
Feels Like 69.4 °F
N
2.0
Wind Variable Wind from NNW
Gusts 3.0 mph

Today
High -- | Low -- °F
--% Chance of Precip.
Yesterday
High -- | Low -- °F
Precip. -- in
6:28 AM 7:32 PM
Waning Crescent, 3% visible
Pressure 30.04 in
Visibility -9999.0 miles
Clouds
Dew Point 54 °F
Humidity 57%
Rainfall 0.00 in
Snow Depth Not available.
UV Not available.
Pollen Not available.
Air Quality Not available.
Flu Activity Not available.
METAR SACO 220500Z 36005KT CAVOK 16/12 Q1017

More Conditions Fewer Conditions

Pressure 30.04 in
Visibility -9999.0 miles
Clouds
Dew Point 54 °F
Humidity 57%
Rainfall 0.00 in
Snow Depth Not available.
UV Not available.
Pollen Not available.
Air Quality Not available.
Flu Activity Not available.
METAR SACO 220500Z 36005KT CAVOK 16/12 Q1017

More Conditions Fewer Conditions

10-Day Weather Forecast

Almanac

Astronomy

Oct. 22, 2014 Rise Set
Actual Time 6:28 AM ART 7:32 PM ART
Civil Twilight 6:03 AM ART 7:57 PM ART
Nautical Twilight 5:33 AM ART 8:27 PM ART
Astronomical Twilight 5:02 AM ART 8:58 PM ART
Moon 5:40 AM ART 6:32 PM ART
Length of Visible Light 13h 54m
Length of Day
13h 03m
Tomorrow will be 1m 50s longer.
Waning Crescent, 3% of the Moon is Illuminated
Today
Waning Crescent
Oct 23
New
Oct 30
First Quarter
Nov 6
Full
Nov 14
Last Quarter

Yesterday's Extremes

Country Highs Country Lows

Community

WunderPhotos

Upload Photos

1,763,886 photos uploaded!

Nearby

Snow Depth

Not available.

Earthquake Activity

City Distance Mag. Time & Date
No recent earthquake activity has been reported nearby.
Minimum magnitude displayed is 2.5.

Coastal Water Temperatures

Place Temperature
No Stations Reporting

Nearby Weather Stations